sensor_id;sensor_type;location;lat;lon;timestamp;temperature;humidity
31521;DHT22;69043;51.224;4.424;2023-04-15T00:02:16;12.50;98.10
31521;DHT22;69043;51.224;4.424;2023-04-15T00:04:46;12.40;98.30
31521;DHT22;69043;51.224;4.424;2023-04-15T00:07:12;12.30;98.00
31521;DHT22;69043;51.224;4.424;2023-04-15T00:09:38;12.30;98.20
31521;DHT22;69043;51.224;4.424;2023-04-15T00:12:04;12.10;98.40
31521;DHT22;69043;51.224;4.424;2023-04-15T00:14:30;12.10;98.50
31521;DHT22;69043;51.224;4.424;2023-04-15T00:16:55;12.10;98.40
31521;DHT22;69043;51.224;4.424;2023-04-15T00:19:22;12.20;98.30
31521;DHT22;69043;51.224;4.424;2023-04-15T00:21:48;12.30;98.20
31521;DHT22;69043;51.224;4.424;2023-04-15T00:24:14;12.20;98.20
31521;DHT22;69043;51.224;4.424;2023-04-15T00:26:40;12.20;98.80
31521;DHT22;69043;51.224;4.424;2023-04-15T00:29:06;12.10;98.30
31521;DHT22;69043;51.224;4.424;2023-04-15T00:31:31;12.10;98.20
31521;DHT22;69043;51.224;4.424;2023-04-15T00:33:57;12.10;98.20
31521;DHT22;69043;51.224;4.424;2023-04-15T00:36:23;12.10;98.20
31521;DHT22;69043;51.224;4.424;2023-04-15T00:38:48;12.20;98.20
31521;DHT22;69043;51.224;4.424;2023-04-15T00:41:14;12.10;98.30
31521;DHT22;69043;51.224;4.424;2023-04-15T00:43:40;12.20;98.30
31521;DHT22;69043;51.224;4.424;2023-04-15T00:46:06;12.10;98.40
31521;DHT22;69043;51.224;4.424;2023-04-15T00:48:32;12.10;98.40
31521;DHT22;69043;51.224;4.424;2023-04-15T00:50:58;12.00;98.50
31521;DHT22;69043;51.224;4.424;2023-04-15T00:53:23;12.20;98.50
31521;DHT22;69043;51.224;4.424;2023-04-15T00:55:49;12.30;98.40
31521;DHT22;69043;51.224;4.424;2023-04-15T00:58:15;12.30;98.20
31521;DHT22;69043;51.224;4.424;2023-04-15T01:00:42;12.40;98.20
31521;DHT22;69043;51.224;4.424;2023-04-15T01:03:07;12.60;98.00
31521;DHT22;69043;51.224;4.424;2023-04-15T01:05:34;12.40;98.30
31521;DHT22;69043;51.224;4.424;2023-04-15T01:08:01;12.30;98.80
31521;DHT22;69043;51.224;4.424;2023-04-15T01:10:27;12.20;98.60
31521;DHT22;69043;51.224;4.424;2023-04-15T01:12:53;12.30;98.50
31521;DHT22;69043;51.224;4.424;2023-04-15T01:15:19;12.30;98.50
31521;DHT22;69043;51.224;4.424;2023-04-15T01:17:45;12.10;98.80
31521;DHT22;69043;51.224;4.424;2023-04-15T01:20:12;12.20;98.70
31521;DHT22;69043;51.224;4.424;2023-04-15T01:22:38;12.20;98.70
31521;DHT22;69043;51.224;4.424;2023-04-15T01:25:09;12.20;98.90
31521;DHT22;69043;51.224;4.424;2023-04-15T01:27:38;12.30;98.80
31521;DHT22;69043;51.224;4.424;2023-04-15T01:30:06;12.20;98.70
31521;DHT22;69043;51.224;4.424;2023-04-15T01:32:32;12.20;99.00
31521;DHT22;69043;51.224;4.424;2023-04-15T01:34:58;12.20;99.10
31521;DHT22;69043;51.224;4.424;2023-04-15T01:37:24;12.00;99.40
31521;DHT22;69043;51.224;4.424;2023-04-15T01:39:50;12.10;99.50
31521;DHT22;69043;51.224;4.424;2023-04-15T01:42:17;12.20;99.20
31521;DHT22;69043;51.224;4.424;2023-04-15T01:44:43;12.20;99.30
31521;DHT22;69043;51.224;4.424;2023-04-15T01:47:09;12.40;99.30
31521;DHT22;69043;51.224;4.424;2023-04-15T01:49:34;12.50;99.10
31521;DHT22;69043;51.224;4.424;2023-04-15T01:52:00;12.50;98.90
31521;DHT22;69043;51.224;4.424;2023-04-15T01:54:26;12.50;98.80
31521;DHT22;69043;51.224;4.424;2023-04-15T01:56:52;12.60;98.90
31521;DHT22;69043;51.224;4.424;2023-04-15T01:59:17;12.60;99.10
31521;DHT22;69043;51.224;4.424;2023-04-15T02:01:43;12.50;99.40
31521;DHT22;69043;51.224;4.424;2023-04-15T02:04:10;12.40;99.80
31521;DHT22;69043;51.224;4.424;2023-04-15T02:06:44;12.30;99.90
31521;DHT22;69043;51.224;4.424;2023-04-15T02:09:10;12.30;99.90
31521;DHT22;69043;51.224;4.424;2023-04-15T02:11:36;12.00;99.80
31521;DHT22;69043;51.224;4.424;2023-04-15T02:14:02;12.20;99.90
31521;DHT22;69043;51.224;4.424;2023-04-15T02:16:31;12.10;99.90
31521;DHT22;69043;51.224;4.424;2023-04-15T02:18:59;12.20;99.90
31521;DHT22;69043;51.224;4.424;2023-04-15T02:21:25;12.10;99.90
31521;DHT22;69043;51.224;4.424;2023-04-15T02:23:51;12.00;99.90
31521;DHT22;69043;51.224;4.424;2023-04-15T02:26:19;12.10;99.90
31521;DHT22;69043;51.224;4.424;2023-04-15T02:28:45;12.20;99.90
31521;DHT22;69043;51.224;4.424;2023-04-15T02:31:11;12.20;99.80
31521;DHT22;69043;51.224;4.424;2023-04-15T02:33:37;12.10;99.80
31521;DHT22;69043;51.224;4.424;2023-04-15T02:36:03;12.00;99.90
31521;DHT22;69043;51.224;4.424;2023-04-15T02:38:29;12.00;99.90
31521;DHT22;69043;51.224;4.424;2023-04-15T02:40:56;12.20;99.90
31521;DHT22;69043;51.224;4.424;2023-04-15T02:43:22;12.00;99.90
31521;DHT22;69043;51.224;4.424;2023-04-15T02:45:48;11.70;99.90
31521;DHT22;69043;51.224;4.424;2023-04-15T02:48:13;11.50;99.90
31521;DHT22;69043;51.224;4.424;2023-04-15T02:50:41;11.50;99.90
31521;DHT22;69043;51.224;4.424;2023-04-15T02:53:06;11.60;99.90
31521;DHT22;69043;51.224;4.424;2023-04-15T02:55:32;11.70;99.90
31521;DHT22;69043;51.224;4.424;2023-04-15T02:57:58;11.60;99.90
31521;DHT22;69043;51.224;4.424;2023-04-15T03:00:25;11.40;99.90
31521;DHT22;69043;51.224;4.424;2023-04-15T03:02:57;11.20;99.90
31521;DHT22;69043;51.224;4.424;2023-04-15T03:05:23;11.10;99.90
31521;DHT22;69043;51.224;4.424;2023-04-15T03:07:51;11.20;99.90
31521;DHT22;69043;51.224;4.424;2023-04-15T03:10:17;11.10;99.90
31521;DHT22;69043;51.224;4.424;2023-04-15T03:12:43;11.10;99.90
31521;DHT22;69043;51.224;4.424;2023-04-15T03:15:09;11.10;99.90
31521;DHT22;69043;51.224;4.424;2023-04-15T03:17:34;11.10;99.90
31521;DHT22;69043;51.224;4.424;2023-04-15T03:20:01;11.00;99.90
31521;DHT22;69043;51.224;4.424;2023-04-15T03:22:28;10.90;99.90
31521;DHT22;69043;51.224;4.424;2023-04-15T03:24:53;10.90;99.90
31521;DHT22;69043;51.224;4.424;2023-04-15T03:27:19;10.80;99.90
31521;DHT22;69043;51.224;4.424;2023-04-15T03:29:45;10.80;99.90
31521;DHT22;69043;51.224;4.424;2023-04-15T03:32:10;10.70;99.90
31521;DHT22;69043;51.224;4.424;2023-04-15T03:34:37;10.80;99.90
31521;DHT22;69043;51.224;4.424;2023-04-15T03:37:04;10.90;99.90
31521;DHT22;69043;51.224;4.424;2023-04-15T03:39:30;11.00;99.90
31521;DHT22;69043;51.224;4.424;2023-04-15T03:41:55;11.10;99.90
31521;DHT22;69043;51.224;4.424;2023-04-15T03:44:22;11.20;99.90
31521;DHT22;69043;51.224;4.424;2023-04-15T03:46:47;11.20;99.90
31521;DHT22;69043;51.224;4.424;2023-04-15T03:49:13;11.20;99.90
31521;DHT22;69043;51.224;4.424;2023-04-15T03:51:39;11.20;99.90
31521;DHT22;69043;51.224;4.424;2023-04-15T03:54:05;11.30;99.90
31521;DHT22;69043;51.224;4.424;2023-04-15T03:56:30;11.20;99.90
31521;DHT22;69043;51.224;4.424;2023-04-15T03:58:56;11.10;99.90
31521;DHT22;69043;51.224;4.424;2023-04-15T04:01:22;11.10;99.90
31521;DHT22;69043;51.224;4.424;2023-04-15T04:03:47;11.00;99.90
31521;DHT22;69043;51.224;4.424;2023-04-15T04:06:14;11.20;99.90
31521;DHT22;69043;51.224;4.424;2023-04-15T04:08:40;11.20;99.90
31521;DHT22;69043;51.224;4.424;2023-04-15T04:11:05;11.20;99.90
31521;DHT22;69043;51.224;4.424;2023-04-15T04:13:31;11.10;99.90
31521;DHT22;69043;51.224;4.424;2023-04-15T04:15:57;11.10;99.90
31521;DHT22;69043;51.224;4.424;2023-04-15T04:18:22;11.00;99.90
31521;DHT22;69043;51.224;4.424;2023-04-15T04:20:48;11.00;99.90
31521;DHT22;69043;51.224;4.424;2023-04-15T04:23:14;11.10;99.90
31521;DHT22;69043;51.224;4.424;2023-04-15T04:25:39;11.30;99.90
31521;DHT22;69043;51.224;4.424;2023-04-15T04:28:05;11.50;99.90
31521;DHT22;69043;51.224;4.424;2023-04-15T04:30:31;11.50;99.90
31521;DHT22;69043;51.224;4.424;2023-04-15T04:32:57;11.30;99.90
31521;DHT22;69043;51.224;4.424;2023-04-15T04:35:23;11.10;99.90
31521;DHT22;69043;51.224;4.424;2023-04-15T04:37:49;11.10;99.90
31521;DHT22;69043;51.224;4.424;2023-04-15T04:40:15;11.10;99.90
31521;DHT22;69043;51.224;4.424;2023-04-15T04:42:41;11.10;99.90
31521;DHT22;69043;51.224;4.424;2023-04-15T04:45:07;11.00;99.90
31521;DHT22;69043;51.224;4.424;2023-04-15T04:47:33;10.80;99.90
31521;DHT22;69043;51.224;4.424;2023-04-15T04:49:58;10.80;99.90
31521;DHT22;69043;51.224;4.424;2023-04-15T04:52:24;10.80;99.90
31521;DHT22;69043;51.224;4.424;2023-04-15T04:54:50;10.90;99.90
31521;DHT22;69043;51.224;4.424;2023-04-15T04:57:16;11.00;99.90
31521;DHT22;69043;51.224;4.424;2023-04-15T04:59:41;11.00;99.90
31521;DHT22;69043;51.224;4.424;2023-04-15T05:02:07;11.10;99.90
31521;DHT22;69043;51.224;4.424;2023-04-15T05:04:32;11.30;99.90
31521;DHT22;69043;51.224;4.424;2023-04-15T05:06:58;11.30;99.90
31521;DHT22;69043;51.224;4.424;2023-04-15T05:09:24;11.20;99.90
31521;DHT22;69043;51.224;4.424;2023-04-15T05:11:50;11.10;99.90
31521;DHT22;69043;51.224;4.424;2023-04-15T05:14:15;11.20;99.90
31521;DHT22;69043;51.224;4.424;2023-04-15T05:16:41;11.10;99.90
31521;DHT22;69043;51.224;4.424;2023-04-15T05:19:07;11.20;99.90
31521;DHT22;69043;51.224;4.424;2023-04-15T05:21:32;11.40;99.90
31521;DHT22;69043;51.224;4.424;2023-04-15T05:23:58;11.50;99.90
31521;DHT22;69043;51.224;4.424;2023-04-15T05:26:24;11.50;99.90
31521;DHT22;69043;51.224;4.424;2023-04-15T05:28:49;11.50;99.90
31521;DHT22;69043;51.224;4.424;2023-04-15T05:31:15;11.50;99.90
31521;DHT22;69043;51.224;4.424;2023-04-15T05:33:41;11.40;99.90
31521;DHT22;69043;51.224;4.424;2023-04-15T05:36:07;11.40;99.90
31521;DHT22;69043;51.224;4.424;2023-04-15T05:38:32;11.30;99.90
31521;DHT22;69043;51.224;4.424;2023-04-15T05:40:58;11.20;99.90
31521;DHT22;69043;51.224;4.424;2023-04-15T05:43:24;11.10;99.90
31521;DHT22;69043;51.224;4.424;2023-04-15T05:45:50;11.20;99.90
31521;DHT22;69043;51.224;4.424;2023-04-15T05:48:15;11.20;99.90
31521;DHT22;69043;51.224;4.424;2023-04-15T05:50:41;11.20;99.90
31521;DHT22;69043;51.224;4.424;2023-04-15T05:53:08;11.30;99.90
31521;DHT22;69043;51.224;4.424;2023-04-15T05:55:33;11.20;99.90
31521;DHT22;69043;51.224;4.424;2023-04-15T05:57:59;11.30;99.90
31521;DHT22;69043;51.224;4.424;2023-04-15T06:00:25;11.30;99.90
31521;DHT22;69043;51.224;4.424;2023-04-15T06:02:50;11.40;99.90
31521;DHT22;69043;51.224;4.424;2023-04-15T06:05:17;11.50;99.90
31521;DHT22;69043;51.224;4.424;2023-04-15T06:07:42;11.40;99.90
31521;DHT22;69043;51.224;4.424;2023-04-15T06:10:08;11.50;99.90
31521;DHT22;69043;51.224;4.424;2023-04-15T06:12:34;11.40;99.90
31521;DHT22;69043;51.224;4.424;2023-04-15T06:15:01;11.40;99.90
31521;DHT22;69043;51.224;4.424;2023-04-15T06:17:27;11.50;99.90
31521;DHT22;69043;51.224;4.424;2023-04-15T06:19:52;11.50;99.90
31521;DHT22;69043;51.224;4.424;2023-04-15T06:22:21;11.50;99.90
31521;DHT22;69043;51.224;4.424;2023-04-15T06:24:48;11.50;99.90
31521;DHT22;69043;51.224;4.424;2023-04-15T06:27:15;11.40;99.90
31521;DHT22;69043;51.224;4.424;2023-04-15T06:29:41;11.60;99.90
31521;DHT22;69043;51.224;4.424;2023-04-15T06:32:06;11.60;99.90
31521;DHT22;69043;51.224;4.424;2023-04-15T06:34:33;11.60;99.90
31521;DHT22;69043;51.224;4.424;2023-04-15T06:36:58;11.60;99.90
31521;DHT22;69043;51.224;4.424;2023-04-15T06:39:25;11.70;99.90
31521;DHT22;69043;51.224;4.424;2023-04-15T06:41:51;11.80;99.90
31521;DHT22;69043;51.224;4.424;2023-04-15T06:44:17;11.80;99.90
31521;DHT22;69043;51.224;4.424;2023-04-15T06:46:43;11.70;99.90
31521;DHT22;69043;51.224;4.424;2023-04-15T06:49:09;11.90;99.90
31521;DHT22;69043;51.224;4.424;2023-04-15T06:51:36;12.10;99.90
31521;DHT22;69043;51.224;4.424;2023-04-15T06:54:02;12.20;99.90
31521;DHT22;69043;51.224;4.424;2023-04-15T06:56:31;12.40;99.90
31521;DHT22;69043;51.224;4.424;2023-04-15T06:58:57;12.40;99.90
31521;DHT22;69043;51.224;4.424;2023-04-15T07:01:22;12.50;99.90
31521;DHT22;69043;51.224;4.424;2023-04-15T07:03:48;12.60;99.90
31521;DHT22;69043;51.224;4.424;2023-04-15T07:06:13;12.30;99.90
31521;DHT22;69043;51.224;4.424;2023-04-15T07:08:39;12.20;99.90
31521;DHT22;69043;51.224;4.424;2023-04-15T07:11:05;12.00;99.90
31521;DHT22;69043;51.224;4.424;2023-04-15T07:13:32;12.10;99.90
31521;DHT22;69043;51.224;4.424;2023-04-15T07:15:57;12.10;99.90
31521;DHT22;69043;51.224;4.424;2023-04-15T07:18:23;12.10;99.90
31521;DHT22;69043;51.224;4.424;2023-04-15T07:20:49;12.20;99.90
31521;DHT22;69043;51.224;4.424;2023-04-15T07:23:15;12.30;99.90
31521;DHT22;69043;51.224;4.424;2023-04-15T07:25:41;12.40;99.90
31521;DHT22;69043;51.224;4.424;2023-04-15T07:28:06;12.50;99.90
31521;DHT22;69043;51.224;4.424;2023-04-15T07:30:32;12.70;99.90
31521;DHT22;69043;51.224;4.424;2023-04-15T07:32:58;12.90;99.90
31521;DHT22;69043;51.224;4.424;2023-04-15T07:35:23;13.00;99.90
31521;DHT22;69043;51.224;4.424;2023-04-15T07:37:51;13.10;99.90
31521;DHT22;69043;51.224;4.424;2023-04-15T07:40:17;13.30;99.90
31521;DHT22;69043;51.224;4.424;2023-04-15T07:42:43;13.30;99.90
31521;DHT22;69043;51.224;4.424;2023-04-15T07:45:09;13.40;99.90
31521;DHT22;69043;51.224;4.424;2023-04-15T07:47:35;13.50;99.90
31521;DHT22;69043;51.224;4.424;2023-04-15T07:50:00;13.50;99.90
31521;DHT22;69043;51.224;4.424;2023-04-15T07:52:27;13.80;99.90
31521;DHT22;69043;51.224;4.424;2023-04-15T07:54:52;13.90;99.90
31521;DHT22;69043;51.224;4.424;2023-04-15T07:57:18;14.20;99.90
31521;DHT22;69043;51.224;4.424;2023-04-15T07:59:44;14.10;99.90
31521;DHT22;69043;51.224;4.424;2023-04-15T08:02:10;14.30;99.90
31521;DHT22;69043;51.224;4.424;2023-04-15T08:04:36;14.50;99.60
31521;DHT22;69043;51.224;4.424;2023-04-15T08:07:03;14.40;99.60
31521;DHT22;69043;51.224;4.424;2023-04-15T08:09:29;14.30;99.80
31521;DHT22;69043;51.224;4.424;2023-04-15T08:11:55;14.40;99.70
31521;DHT22;69043;51.224;4.424;2023-04-15T08:14:21;14.40;99.50
31521;DHT22;69043;51.224;4.424;2023-04-15T08:16:47;14.30;99.70
31521;DHT22;69043;51.224;4.424;2023-04-15T08:19:13;14.20;99.60
31521;DHT22;69043;51.224;4.424;2023-04-15T08:21:38;14.30;99.20
31521;DHT22;69043;51.224;4.424;2023-04-15T08:24:05;14.30;99.20
31521;DHT22;69043;51.224;4.424;2023-04-15T08:26:32;14.50;99.10
31521;DHT22;69043;51.224;4.424;2023-04-15T08:28:57;14.50;98.60
31521;DHT22;69043;51.224;4.424;2023-04-15T08:31:25;14.70;99.00
31521;DHT22;69043;51.224;4.424;2023-04-15T08:33:51;14.70;99.50
31521;DHT22;69043;51.224;4.424;2023-04-15T08:36:21;14.90;99.10
31521;DHT22;69043;51.224;4.424;2023-04-15T08:38:46;15.00;99.20
31521;DHT22;69043;51.224;4.424;2023-04-15T08:41:24;15.10;99.10
31521;DHT22;69043;51.224;4.424;2023-04-15T08:43:58;14.90;99.20
31521;DHT22;69043;51.224;4.424;2023-04-15T08:46:25;15.00;99.20
31521;DHT22;69043;51.224;4.424;2023-04-15T08:48:55;15.00;98.60
31521;DHT22;69043;51.224;4.424;2023-04-15T08:51:21;14.90;98.80
31521;DHT22;69043;51.224;4.424;2023-04-15T08:53:48;15.10;98.90
31521;DHT22;69043;51.224;4.424;2023-04-15T08:56:14;15.20;98.80
31521;DHT22;69043;51.224;4.424;2023-04-15T08:58:43;15.30;98.70
31521;DHT22;69043;51.224;4.424;2023-04-15T09:01:11;15.30;98.20
31521;DHT22;69043;51.224;4.424;2023-04-15T09:03:38;15.30;98.20
31521;DHT22;69043;51.224;4.424;2023-04-15T09:06:04;15.30;98.60
31521;DHT22;69043;51.224;4.424;2023-04-15T09:08:31;15.40;98.60
31521;DHT22;69043;51.224;4.424;2023-04-15T09:10:59;15.60;98.70
31521;DHT22;69043;51.224;4.424;2023-04-15T09:13:24;15.60;98.20
31521;DHT22;69043;51.224;4.424;2023-04-15T09:15:51;15.50;98.20
31521;DHT22;69043;51.224;4.424;2023-04-15T09:18:34;15.40;98.10
31521;DHT22;69043;51.224;4.424;2023-04-15T09:21:08;15.30;98.20
31521;DHT22;69043;51.224;4.424;2023-04-15T09:23:55;15.40;98.10
31521;DHT22;69043;51.224;4.424;2023-04-15T09:26:40;15.50;97.80
31521;DHT22;69043;51.224;4.424;2023-04-15T09:29:07;15.30;96.70
31521;DHT22;69043;51.224;4.424;2023-04-15T09:31:34;15.30;96.40
31521;DHT22;69043;51.224;4.424;2023-04-15T09:34:00;15.50;96.50
31521;DHT22;69043;51.224;4.424;2023-04-15T09:36:26;15.50;96.20
31521;DHT22;69043;51.224;4.424;2023-04-15T09:38:58;15.70;96.40
31521;DHT22;69043;51.224;4.424;2023-04-15T09:41:25;15.90;96.10
31521;DHT22;69043;51.224;4.424;2023-04-15T09:43:51;16.00;96.30
31521;DHT22;69043;51.224;4.424;2023-04-15T09:46:17;16.10;95.90
31521;DHT22;69043;51.224;4.424;2023-04-15T09:48:42;16.20;95.90
31521;DHT22;69043;51.224;4.424;2023-04-15T09:51:08;16.20;95.20
31521;DHT22;69043;51.224;4.424;2023-04-15T09:53:35;16.10;94.50
31521;DHT22;69043;51.224;4.424;2023-04-15T09:56:01;15.90;93.90
31521;DHT22;69043;51.224;4.424;2023-04-15T09:58:31;15.90;93.50
31521;DHT22;69043;51.224;4.424;2023-04-15T10:01:05;15.90;92.40
31521;DHT22;69043;51.224;4.424;2023-04-15T10:03:34;15.80;93.10
31521;DHT22;69043;51.224;4.424;2023-04-15T10:06:01;15.80;92.90
31521;DHT22;69043;51.224;4.424;2023-04-15T10:08:32;16.00;93.70
31521;DHT22;69043;51.224;4.424;2023-04-15T10:11:02;16.00;93.90
31521;DHT22;69043;51.224;4.424;2023-04-15T10:13:30;16.10;94.30
31521;DHT22;69043;51.224;4.424;2023-04-15T10:16:06;16.10;93.60
31521;DHT22;69043;51.224;4.424;2023-04-15T10:18:37;16.00;93.70
31521;DHT22;69043;51.224;4.424;2023-04-15T10:21:05;16.00;92.40
31521;DHT22;69043;51.224;4.424;2023-04-15T10:23:31;16.10;91.70
31521;DHT22;69043;51.224;4.424;2023-04-15T10:25:58;16.20;89.20
31521;DHT22;69043;51.224;4.424;2023-04-15T10:28:25;16.20;88.40
31521;DHT22;69043;51.224;4.424;2023-04-15T10:30:51;16.20;88.70
31521;DHT22;69043;51.224;4.424;2023-04-15T10:33:21;16.20;88.90
31521;DHT22;69043;51.224;4.424;2023-04-15T10:35:48;16.40;89.10
31521;DHT22;69043;51.224;4.424;2023-04-15T10:41:24;16.60;90.10
31521;DHT22;69043;51.224;4.424;2023-04-15T10:49:10;16.90;91.30
31521;DHT22;69043;51.224;4.424;2023-04-15T10:51:38;16.90;88.90
31521;DHT22;69043;51.224;4.424;2023-04-15T10:56:44;16.90;89.30
31521;DHT22;69043;51.224;4.424;2023-04-15T10:59:10;16.90;89.40
31521;DHT22;69043;51.224;4.424;2023-04-15T11:02:00;16.90;90.20
31521;DHT22;69043;51.224;4.424;2023-04-15T11:04:54;17.00;90.10
31521;DHT22;69043;51.224;4.424;2023-04-15T11:18:11;16.80;88.00
31521;DHT22;69043;51.224;4.424;2023-04-15T11:20:38;16.80;89.70
31521;DHT22;69043;51.224;4.424;2023-04-15T11:23:04;16.80;90.30
31521;DHT22;69043;51.224;4.424;2023-04-15T11:25:32;16.80;90.30
31521;DHT22;69043;51.224;4.424;2023-04-15T11:27:59;17.00;90.60
31521;DHT22;69043;51.224;4.424;2023-04-15T11:30:28;17.40;88.50
31521;DHT22;69043;51.224;4.424;2023-04-15T11:32:57;18.20;84.70
31521;DHT22;69043;51.224;4.424;2023-04-15T11:35:23;18.70;79.30
31521;DHT22;69043;51.224;4.424;2023-04-15T11:37:49;19.10;78.10
31521;DHT22;69043;51.224;4.424;2023-04-15T11:40:16;19.60;77.60
31521;DHT22;69043;51.224;4.424;2023-04-15T11:42:46;19.70;78.30
31521;DHT22;69043;51.224;4.424;2023-04-15T11:45:13;19.90;78.30
31521;DHT22;69043;51.224;4.424;2023-04-15T11:47:41;19.80;76.60
31521;DHT22;69043;51.224;4.424;2023-04-15T11:50:22;20.40;76.50
31521;DHT22;69043;51.224;4.424;2023-04-15T11:52:55;21.20;77.90
31521;DHT22;69043;51.224;4.424;2023-04-15T11:55:25;21.80;78.00
31521;DHT22;69043;51.224;4.424;2023-04-15T11:58:09;22.50;78.00
31521;DHT22;69043;51.224;4.424;2023-04-15T12:00:35;22.20;78.30
31521;DHT22;69043;51.224;4.424;2023-04-15T12:03:12;22.90;77.60
31521;DHT22;69043;51.224;4.424;2023-04-15T12:12:00;23.20;75.50
31521;DHT22;69043;51.224;4.424;2023-04-15T12:14:28;23.70;73.20
31521;DHT22;69043;51.224;4.424;2023-04-15T12:17:02;24.00;72.40
31521;DHT22;69043;51.224;4.424;2023-04-15T12:19:40;22.60;70.70
31521;DHT22;69043;51.224;4.424;2023-04-15T12:22:11;21.50;72.50
31521;DHT22;69043;51.224;4.424;2023-04-15T12:24:38;21.90;73.60
31521;DHT22;69043;51.224;4.424;2023-04-15T12:27:11;22.40;72.50
31521;DHT22;69043;51.224;4.424;2023-04-15T12:29:39;23.10;72.20
31521;DHT22;69043;51.224;4.424;2023-04-15T12:32:23;23.10;71.60
31521;DHT22;69043;51.224;4.424;2023-04-15T12:34:50;22.60;71.70
31521;DHT22;69043;51.224;4.424;2023-04-15T12:37:16;22.80;70.40
31521;DHT22;69043;51.224;4.424;2023-04-15T12:39:44;23.10;69.50
31521;DHT22;69043;51.224;4.424;2023-04-15T12:42:10;23.40;68.70
31521;DHT22;69043;51.224;4.424;2023-04-15T12:44:37;23.90;68.90
31521;DHT22;69043;51.224;4.424;2023-04-15T12:47:03;24.00;67.90
31521;DHT22;69043;51.224;4.424;2023-04-15T12:49:30;24.50;68.30
31521;DHT22;69043;51.224;4.424;2023-04-15T12:51:57;24.30;68.30
31521;DHT22;69043;51.224;4.424;2023-04-15T12:54:24;23.60;71.50
31521;DHT22;69043;51.224;4.424;2023-04-15T12:56:52;25.20;70.40
31521;DHT22;69043;51.224;4.424;2023-04-15T12:59:18;25.50;68.90
31521;DHT22;69043;51.224;4.424;2023-04-15T13:01:46;26.10;69.70
31521;DHT22;69043;51.224;4.424;2023-04-15T13:04:12;26.00;68.10
31521;DHT22;69043;51.224;4.424;2023-04-15T13:06:38;25.70;67.30
31521;DHT22;69043;51.224;4.424;2023-04-15T13:09:04;25.60;67.30
31521;DHT22;69043;51.224;4.424;2023-04-15T13:11:30;25.00;70.00
31521;DHT22;69043;51.224;4.424;2023-04-15T13:14:05;25.80;69.00
31521;DHT22;69043;51.224;4.424;2023-04-15T13:16:31;25.90;66.50
31521;DHT22;69043;51.224;4.424;2023-04-15T13:18:58;25.20;68.40
31521;DHT22;69043;51.224;4.424;2023-04-15T13:21:24;24.60;67.00
31521;DHT22;69043;51.224;4.424;2023-04-15T13:23:51;25.00;67.70
31521;DHT22;69043;51.224;4.424;2023-04-15T13:26:17;25.60;67.40
31521;DHT22;69043;51.224;4.424;2023-04-15T13:28:43;25.20;67.90
31521;DHT22;69043;51.224;4.424;2023-04-15T13:31:09;26.00;67.50
31521;DHT22;69043;51.224;4.424;2023-04-15T13:33:35;26.60;65.20
31521;DHT22;69043;51.224;4.424;2023-04-15T13:36:01;26.50;65.10
31521;DHT22;69043;51.224;4.424;2023-04-15T13:38:26;27.50;65.20
31521;DHT22;69043;51.224;4.424;2023-04-15T13:40:52;27.80;64.80
31521;DHT22;69043;51.224;4.424;2023-04-15T13:43:18;27.70;64.00
31521;DHT22;69043;51.224;4.424;2023-04-15T13:45:47;29.00;63.50
31521;DHT22;69043;51.224;4.424;2023-04-15T13:48:13;29.10;61.60
31521;DHT22;69043;51.224;4.424;2023-04-15T13:50:38;29.50;61.90
31521;DHT22;69043;51.224;4.424;2023-04-15T13:53:05;29.50;61.50
31521;DHT22;69043;51.224;4.424;2023-04-15T13:55:31;28.00;62.30
31521;DHT22;69043;51.224;4.424;2023-04-15T13:57:59;27.70;64.80
31521;DHT22;69043;51.224;4.424;2023-04-15T14:00:25;27.40;63.60
31521;DHT22;69043;51.224;4.424;2023-04-15T14:02:50;28.50;64.10
31521;DHT22;69043;51.224;4.424;2023-04-15T14:05:16;28.60;61.90
31521;DHT22;69043;51.224;4.424;2023-04-15T14:07:42;26.60;65.80
31521;DHT22;69043;51.224;4.424;2023-04-15T14:10:08;24.20;71.00
31521;DHT22;69043;51.224;4.424;2023-04-15T14:12:33;25.60;69.00
31521;DHT22;69043;51.224;4.424;2023-04-15T14:14:59;26.40;67.30
31521;DHT22;69043;51.224;4.424;2023-04-15T14:17:25;25.70;66.30
31521;DHT22;69043;51.224;4.424;2023-04-15T14:19:51;24.50;69.80
31521;DHT22;69043;51.224;4.424;2023-04-15T14:22:16;24.90;70.70
31521;DHT22;69043;51.224;4.424;2023-04-15T14:24:43;24.50;70.20
31521;DHT22;69043;51.224;4.424;2023-04-15T14:27:09;23.00;71.80
31521;DHT22;69043;51.224;4.424;2023-04-15T14:29:36;20.80;75.40
31521;DHT22;69043;51.224;4.424;2023-04-15T14:32:02;20.00;79.10
31521;DHT22;69043;51.224;4.424;2023-04-15T14:34:28;22.20;77.00
31521;DHT22;69043;51.224;4.424;2023-04-15T14:36:53;23.60;71.10
31521;DHT22;69043;51.224;4.424;2023-04-15T14:39:19;25.30;64.50
31521;DHT22;69043;51.224;4.424;2023-04-15T14:41:45;26.40;63.50
31521;DHT22;69043;51.224;4.424;2023-04-15T14:44:11;27.40;62.40
31521;DHT22;69043;51.224;4.424;2023-04-15T14:46:38;28.40;61.10
31521;DHT22;69043;51.224;4.424;2023-04-15T14:49:05;28.70;60.70
31521;DHT22;69043;51.224;4.424;2023-04-15T14:51:31;28.80;59.50
31521;DHT22;69043;51.224;4.424;2023-04-15T14:53:57;26.40;62.00
31521;DHT22;69043;51.224;4.424;2023-04-15T14:56:22;26.10;63.40
31521;DHT22;69043;51.224;4.424;2023-04-15T14:58:48;27.40;63.40
31521;DHT22;69043;51.224;4.424;2023-04-15T15:01:14;28.10;62.30
31521;DHT22;69043;51.224;4.424;2023-04-15T15:03:40;26.50;63.60
31521;DHT22;69043;51.224;4.424;2023-04-15T15:06:06;25.00;67.10
31521;DHT22;69043;51.224;4.424;2023-04-15T15:08:31;25.40;67.30
31521;DHT22;69043;51.224;4.424;2023-04-15T15:10:57;26.70;65.00
31521;DHT22;69043;51.224;4.424;2023-04-15T15:13:23;28.00;63.60
31521;DHT22;69043;51.224;4.424;2023-04-15T15:15:49;29.40;62.60
31521;DHT22;69043;51.224;4.424;2023-04-15T15:18:16;28.90;59.00
31521;DHT22;69043;51.224;4.424;2023-04-15T15:20:43;27.50;62.30
31521;DHT22;69043;51.224;4.424;2023-04-15T15:23:09;26.10;63.70
31521;DHT22;69043;51.224;4.424;2023-04-15T15:25:34;27.00;63.50
31521;DHT22;69043;51.224;4.424;2023-04-15T15:28:00;27.90;61.70
31521;DHT22;69043;51.224;4.424;2023-04-15T15:30:26;27.00;62.50
31521;DHT22;69043;51.224;4.424;2023-04-15T15:32:52;25.30;64.30
31521;DHT22;69043;51.224;4.424;2023-04-15T15:35:17;23.30;68.40
31521;DHT22;69043;51.224;4.424;2023-04-15T15:37:44;22.50;71.20
31521;DHT22;69043;51.224;4.424;2023-04-15T15:40:11;23.00;71.90
31521;DHT22;69043;51.224;4.424;2023-04-15T15:42:36;24.50;70.30
31521;DHT22;69043;51.224;4.424;2023-04-15T15:45:03;24.70;69.90
31521;DHT22;69043;51.224;4.424;2023-04-15T15:47:29;23.70;71.70
31521;DHT22;69043;51.224;4.424;2023-04-15T15:49:55;22.80;72.50
31521;DHT22;69043;51.224;4.424;2023-04-15T15:52:21;21.90;73.20
31521;DHT22;69043;51.224;4.424;2023-04-15T15:54:47;21.10;74.60
31521;DHT22;69043;51.224;4.424;2023-04-15T15:57:12;20.30;75.80